Time;durP1;ratioP1;P1;durP2;ratioP2;P2;SDS_P1;SDS_P2;PMS_P1;PMS_P2;Temp;Humidity;BMP_temperature;BMP_pressure;BME280_temperature;BME280_humidity;BME280_pressure;Samples;Min_cycle;Max_cycle;Signal;HPM_P1;HPM_P2
2021/03/24 00:00:34;;;;;;;19.38;15.30;;;12.00;63.70;;;;;;5028355;28;20104;-65
2021/03/24 00:03:00;;;;;;;16.58;14.48;;;12.00;63.70;;;;;;5027730;28;20045;-65
2021/03/24 00:05:29;;;;;;;21.88;15.93;;;12.00;63.70;;;;;;5028678;28;20492;-64
2021/03/24 00:07:56;;;;;;;20.73;15.60;;;12.00;63.70;;;;;;5027276;28;20043;-65
2021/03/24 00:10:24;;;;;;;17.73;15.05;;;12.00;63.70;;;;;;5028845;28;20492;-65
2021/03/24 00:12:51;;;;;;;16.25;14.55;;;12.00;63.70;;;;;;5028469;28;20065;-65
2021/03/24 00:15:17;;;;;;;18.80;15.48;;;12.00;63.70;;;;;;5028888;28;20502;-66
2021/03/24 00:17:43;;;;;;;18.85;15.85;;;11.90;63.50;;;;;;5028408;28;20132;-65
2021/03/24 00:20:11;;;;;;;18.75;15.70;;;12.00;63.80;;;;;;5028326;28;20120;-65
2021/03/24 00:22:37;;;;;;;22.60;15.55;;;11.90;64.10;;;;;;5026165;28;20056;-65
2021/03/24 00:25:05;;;;;;;19.75;14.68;;;11.90;63.60;;;;;;5027970;28;20065;-65
2021/03/24 00:27:31;;;;;;;17.52;15.57;;;11.90;63.60;;;;;;5028448;28;20500;-65
2021/03/24 00:29:57;;;;;;;17.00;14.95;;;11.90;63.60;;;;;;5028050;28;20029;-65
2021/03/24 00:32:23;;;;;;;19.40;15.43;;;11.90;63.60;;;;;;5028089;28;20407;-64
2021/03/24 00:34:49;;;;;;;16.65;14.45;;;11.80;63.50;;;;;;5026718;28;20111;-65
2021/03/24 00:37:15;;;;;;;16.35;14.32;;;11.90;63.70;;;;;;5026958;28;20536;-65
2021/03/24 00:39:42;;;;;;;17.40;15.57;;;11.90;63.70;;;;;;5027986;28;20342;-67
2021/03/24 00:42:08;;;;;;;17.55;14.65;;;11.80;63.50;;;;;;5028246;28;20467;-65
2021/03/24 00:44:34;;;;;;;17.95;14.73;;;11.80;63.60;;;;;;5027771;28;20457;-64
2021/03/24 00:47:01;;;;;;;14.88;13.48;;;11.80;63.60;;;;;;5028710;28;20037;-65
2021/03/24 00:49:28;;;;;;;20.00;15.55;;;11.80;63.60;;;;;;5027228;28;20030;-65
2021/03/24 00:51:54;;;;;;;17.92;15.15;;;11.80;63.60;;;;;;5027691;28;20034;-65
2021/03/24 00:54:21;;;;;;;18.33;15.07;;;11.80;63.60;;;;;;5028030;28;20388;-65
2021/03/24 00:56:47;;;;;;;17.23;15.25;;;11.80;63.70;;;;;;5027677;28;20087;-65
2021/03/24 00:59:14;;;;;;;17.10;13.98;;;11.80;63.70;;;;;;5027380;28;20025;-65
2021/03/24 01:01:41;;;;;;;18.80;15.70;;;11.70;63.50;;;;;;5026924;28;20404;-64
2021/03/24 01:04:08;;;;;;;17.00;14.35;;;11.70;63.60;;;;;;5026998;28;20494;-64
2021/03/24 01:06:41;;;;;;;18.88;14.13;;;11.70;63.60;;;;;;5028196;28;20334;-64
2021/03/24 01:09:10;;;;;;;20.25;14.63;;;11.70;63.60;;;;;;5027643;28;20040;-64
2021/03/24 01:11:37;;;;;;;18.92;15.05;;;11.70;63.60;;;;;;5027676;28;20030;-64
2021/03/24 01:14:04;;;;;;;16.25;14.25;;;11.70;64.20;;;;;;5027592;28;20053;-65
2021/03/24 01:16:32;;;;;;;19.60;13.80;;;11.70;63.60;;;;;;5027069;28;20483;-65
2021/03/24 01:18:58;;;;;;;18.80;14.13;;;11.70;63.60;;;;;;5025582;28;20033;-64
2021/03/24 01:21:24;;;;;;;17.55;14.48;;;11.70;63.60;;;;;;5027662;28;20397;-65
2021/03/24 01:23:50;;;;;;;16.20;14.60;;;11.70;63.60;;;;;;5026860;28;20030;-64
2021/03/24 01:26:18;;;;;;;18.00;14.95;;;11.70;63.70;;;;;;5027131;28;20446;-64
2021/03/24 01:28:44;;;;;;;16.13;13.95;;;11.60;63.50;;;;;;5027249;28;20557;-64
2021/03/24 01:31:10;;;;;;;17.95;13.93;;;11.60;63.50;;;;;;5027493;28;20404;-63
2021/03/24 01:33:36;;;;;;;15.40;13.80;;;11.60;63.60;;;;;;5026889;28;20056;-63
2021/03/24 01:36:02;;;;;;;16.45;13.52;;;11.60;63.60;;;;;;5027282;28;20522;-63
2021/03/24 01:38:28;;;;;;;17.70;13.50;;;11.60;63.60;;;;;;5025127;28;20057;-64
2021/03/24 01:40:57;;;;;;;17.67;13.48;;;11.60;63.60;;;;;;5026969;28;20111;-64
2021/03/24 01:43:26;;;;;;;15.63;13.30;;;11.50;63.50;;;;;;5026643;28;20400;-64
2021/03/24 01:46:10;;;;;;;15.15;13.52;;;11.50;63.50;;;;;;5026541;28;20112;-64
2021/03/24 01:48:37;;;;;;;18.42;13.82;;;11.50;63.50;;;;;;5027134;28;20037;-64
2021/03/24 01:51:04;;;;;;;15.65;13.82;;;11.50;63.50;;;;;;5027082;28;20029;-63
2021/03/24 01:53:35;;;;;;;17.20;13.20;;;11.50;63.60;;;;;;5026690;28;20094;-64
2021/03/24 01:56:01;;;;;;;14.15;12.55;;;11.50;63.60;;;;;;5026929;28;20033;-64
2021/03/24 01:58:27;;;;;;;16.98;13.90;;;11.50;63.60;;;;;;5026174;28;20033;-64
2021/03/24 02:00:55;;;;;;;15.75;13.68;;;11.50;63.60;;;;;;5025972;28;20090;-65
2021/03/24 02:03:23;;;;;;;14.85;12.95;;;11.40;63.50;;;;;;5026188;28;20428;-65
2021/03/24 02:05:50;;;;;;;15.02;13.35;;;11.50;63.70;;;;;;5026848;28;20033;-64
2021/03/24 02:08:31;;;;;;;16.38;14.00;;;11.50;63.60;;;;;;5026349;28;20025;-64
2021/03/24 02:11:16;;;;;;;14.57;13.05;;;11.40;63.50;;;;;;5026366;28;20030;-64
2021/03/24 02:13:52;;;;;;;17.67;13.10;;;11.50;63.70;;;;;;5025427;28;20038;-65
2021/03/24 02:16:28;;;;;;;18.58;13.30;;;11.50;63.70;;;;;;5026645;28;20034;-64
2021/03/24 02:18:57;;;;;;;16.83;13.48;;;11.40;63.50;;;;;;5026256;28;20044;-64
2021/03/24 02:21:30;;;;;;;18.33;13.60;;;11.40;63.50;;;;;;5026769;28;20472;-64
2021/03/24 02:24:12;;;;;;;15.43;12.75;;;11.40;63.50;;;;;;5024905;28;20037;-65
2021/03/24 02:26:44;;;;;;;15.45;13.20;;;11.40;63.50;;;;;;5026623;28;20120;-64
2021/03/24 02:29:14;;;;;;;17.20;12.93;;;11.30;63.40;;;;;;5026498;28;20029;-64
2021/03/24 02:31:40;;;;;;;17.02;13.10;;;11.40;63.60;;;;;;5033891;23;20104;-71
2021/03/24 02:34:25;;;;;;;20.60;13.18;;;11.30;63.40;;;;;;5006679;28;20073;-71
2021/03/24 02:36:53;;;;;;;19.80;13.60;;;11.30;63.50;;;;;;5006441;28;20458;-71
2021/03/24 02:39:22;;;;;;;14.45;12.95;;;11.30;63.50;;;;;;5006349;28;20477;-71
2021/03/24 02:41:49;;;;;;;14.02;12.63;;;11.30;63.50;;;;;;5005486;28;20500;-71
2021/03/24 02:44:16;;;;;;;18.20;13.38;;;11.30;63.50;;;;;;5006963;28;20460;-71
2021/03/24 02:46:43;;;;;;;15.32;13.07;;;11.30;63.50;;;;;;5020746;23;20104;-88
2021/03/24 02:49:11;;;;;;;16.13;13.63;;;11.30;63.50;;;;;;5012128;28;20030;-88
2021/03/24 02:51:39;;;;;;;14.27;11.38;;;11.30;63.60;;;;;;5012126;28;20053;-88
2021/03/24 02:54:10;;;;;;;15.07;13.15;;;11.30;63.60;;;;;;4994808;28;20465;-89
2021/03/24 02:56:37;;;;;;;17.17;12.98;;;11.30;63.60;;;;;;5011241;28;20033;-89
2021/03/24 02:59:05;;;;;;;14.95;11.93;;;11.30;63.60;;;;;;5011110;28;20037;-89
2021/03/24 03:01:49;;;;;;;15.98;14.07;;;11.30;63.60;;;;;;5011362;28;20194;-87
2021/03/24 03:04:29;;;;;;;18.83;13.45;;;11.30;63.60;;;;;;4994551;28;20040;-89
2021/03/24 03:06:58;;;;;;;15.52;12.95;;;11.30;63.60;;;;;;5010828;28;20559;-88
2021/03/24 03:09:53;;;;;;;15.93;12.70;;;11.30;63.60;;;;;;5010635;28;20117;-91
2021/03/24 03:12:38;;;;;;;16.63;13.18;;;11.20;63.40;;;;;;5008676;28;20034;-91
2021/03/24 03:15:23;;;;;;;14.75;11.82;;;11.30;63.60;;;;;;5011084;28;20041;-90
2021/03/24 03:18:05;;;;;;;18.40;12.93;;;11.30;63.70;;;;;;5011228;28;20400;-86
2021/03/24 03:20:39;;;;;;;16.98;12.02;;;11.20;63.40;;;;;;5010965;28;20033;-89
2021/03/24 03:23:09;;;;;;;16.75;11.93;;;11.20;63.50;;;;;;5011404;28;20072;-88
2021/03/24 03:25:41;;;;;;;18.20;12.73;;;11.20;63.50;;;;;;5013321;28;20037;-89
2021/03/24 03:28:10;;;;;;;18.20;11.85;;;11.20;63.50;;;;;;5015109;28;20041;-90
2021/03/24 03:30:40;;;;;;;14.85;13.15;;;11.10;63.40;;;;;;5015336;28;20029;-89
2021/03/24 03:33:10;;;;;;;14.05;11.65;;;11.20;63.60;;;;;;4999044;28;20072;-90
2021/03/24 03:35:37;;;;;;;18.08;13.35;;;11.10;63.40;;;;;;5014665;28;20716;-88
2021/03/24 03:38:10;;;;;;;18.60;13.40;;;11.20;63.60;;;;;;5016194;28;20026;-90
2021/03/24 03:40:37;;;;;;;19.23;13.57;;;11.20;63.70;;;;;;5014899;28;20034;-88
2021/03/24 03:43:09;;;;;;;18.15;12.90;;;11.20;63.60;;;;;;5016236;28;20032;-88
2021/03/24 03:45:41;;;;;;;13.95;12.43;;;11.20;63.70;;;;;;5016037;28;20037;-87
2021/03/24 03:48:10;;;;;;;14.52;12.40;;;11.10;63.50;;;;;;4997842;28;20096;-87
2021/03/24 03:50:36;;;;;;;17.60;13.40;;;11.20;63.70;;;;;;4997671;28;20030;-87
2021/03/24 03:53:16;;;;;;;16.55;13.32;;;11.10;63.50;;;;;;5013295;28;20033;-87
2021/03/24 03:55:47;;;;;;;19.88;12.93;;;11.20;63.70;;;;;;5013941;28;20045;-88
2021/03/24 03:58:13;;;;;;;18.13;13.52;;;11.20;63.70;;;;;;5013825;28;20072;-88
2021/03/24 04:00:50;;;;;;;15.35;13.57;;;11.10;63.50;;;;;;4997553;28;20068;-88
2021/03/24 04:03:20;;;;;;;20.17;13.25;;;11.10;63.60;;;;;;5000793;28;20045;-86
2021/03/24 04:06:01;;;;;;;18.15;13.73;;;11.10;63.50;;;;;;5014630;28;20501;-88
2021/03/24 04:08:33;;;;;;;16.10;14.35;;;11.10;63.60;;;;;;4997159;28;20048;-86
2021/03/24 04:11:09;;;;;;;14.98;13.05;;;11.10;63.60;;;;;;5014423;28;20157;-87
2021/03/24 04:13:42;;;;;;;16.17;12.85;;;11.10;63.60;;;;;;5013553;28;20417;-88
2021/03/24 04:16:08;;;;;;;15.57;12.83;;;11.10;63.60;;;;;;4997375;28;20210;-88
2021/03/24 04:18:49;;;;;;;17.55;13.90;;;11.10;63.60;;;;;;5013380;28;20084;-88
2021/03/24 04:21:16;;;;;;;17.60;13.70;;;11.10;63.70;;;;;;5014051;28;20509;-89
2021/03/24 04:23:47;;;;;;;15.20;13.60;;;11.10;63.70;;;;;;4996820;28;20104;-86
2021/03/24 04:26:22;;;;;;;15.63;12.63;;;11.10;63.70;;;;;;5012813;28;20397;-87
2021/03/24 04:28:52;;;;;;;13.07;11.63;;;11.10;63.80;;;;;;4997974;28;20049;-89
2021/03/24 04:31:22;;;;;;;14.32;12.82;;;11.00;63.60;;;;;;4997353;28;20436;-88
2021/03/24 04:33:48;;;;;;;18.65;14.10;;;11.10;63.80;;;;;;5015048;28;20036;-88
2021/03/24 04:36:37;;;;;;;15.23;12.68;;;11.10;63.80;;;;;;5012809;28;20033;-86
2021/03/24 04:39:13;;;;;;;17.38;13.55;;;11.00;63.60;;;;;;5013124;28;20109;-86
2021/03/24 04:41:43;;;;;;;15.02;12.93;;;11.10;63.80;;;;;;5014273;28;20033;-86
2021/03/24 04:44:31;;;;;;;19.83;12.82;;;11.00;63.60;;;;;;4996474;28;20065;-85
2021/03/24 04:47:13;;;;;;;16.92;13.30;;;11.00;63.70;;;;;;5012279;28;20057;-86
2021/03/24 04:49:49;;;;;;;18.60;13.55;;;11.00;63.60;;;;;;5012420;28;20030;-88
2021/03/24 04:52:17;;;;;;;15.45;13.30;;;11.00;63.60;;;;;;5013784;28;20031;-89
2021/03/24 04:54:44;;;;;;;19.42;14.25;;;11.00;63.60;;;;;;5012895;28;20033;-87
2021/03/24 04:57:18;;;;;;;15.80;12.93;;;11.00;63.60;;;;;;4996678;28;20080;-88
2021/03/24 04:59:47;;;;;;;18.08;14.85;;;11.00;63.70;;;;;;5012765;28;20084;-85
2021/03/24 05:02:27;;;;;;;19.25;14.30;;;11.00;63.70;;;;;;5012570;28;20081;-86
2021/03/24 05:05:06;;;;;;;17.95;13.90;;;11.00;63.70;;;;;;5012533;28;20108;-86
2021/03/24 05:07:36;;;;;;;15.45;13.57;;;11.00;63.80;;;;;;4996716;28;20137;-88
2021/03/24 05:10:17;;;;;;;14.95;13.32;;;11.00;63.70;;;;;;5012777;28;20107;-86
2021/03/24 05:12:52;;;;;;;18.85;12.90;;;11.00;63.80;;;;;;5012872;28;20084;-87
2021/03/24 05:15:33;;;;;;;16.00;12.57;;;10.90;63.60;;;;;;4996932;28;20037;-88
2021/03/24 05:18:02;;;;;;;20.20;14.88;;;10.90;63.70;;;;;;4996340;28;20030;-88
2021/03/24 05:20:44;;;;;;;17.08;12.80;;;10.90;63.60;;;;;;4996001;28;20044;-87
2021/03/24 05:23:15;;;;;;;15.80;14.02;;;10.90;63.70;;;;;;5012106;28;20562;-88
2021/03/24 05:25:44;;;;;;;17.92;13.90;;;11.00;63.80;;;;;;5011901;28;20034;-87
2021/03/24 05:28:28;;;;;;;20.85;14.52;;;11.00;63.90;;;;;;5012244;28;20041;-87
2021/03/24 05:31:01;;;;;;;15.50;13.85;;;11.00;63.90;;;;;;5013358;28;20033;-88
2021/03/24 05:33:30;;;;;;;14.07;12.55;;;11.00;63.90;;;;;;5012146;28;20402;-88
2021/03/24 05:35:56;;;;;;;19.15;13.93;;;10.90;63.70;;;;;;4995480;28;20049;-88
2021/03/24 05:38:30;;;;;;;16.23;13.32;;;10.90;63.70;;;;;;5013508;28;20026;-88
2021/03/24 05:41:17;;;;;;;17.30;13.25;;;10.90;63.70;;;;;;5011916;28;20540;-85
2021/03/24 05:44:02;;;;;;;14.00;12.50;;;10.90;63.80;;;;;;5013663;28;20038;-90
2021/03/24 05:46:58;;;;;;;16.85;13.25;;;10.90;63.70;;;;;;5011819;28;20064;-86
2021/03/24 05:50:07;;;;;;;15.70;13.88;;;10.90;63.80;;;;;;4987671;28;20393;-86
2021/03/24 05:53:00;;;;;;;17.67;12.93;;;10.90;63.80;;;;;;4952546;28;20062;-87
2021/03/24 05:55:34;;;;;;;17.83;13.13;;;10.90;63.80;;;;;;4989906;28;20034;-87
2021/03/24 05:58:28;;;;;;;17.42;13.45;;;10.90;63.80;;;;;;4994363;28;20489;-86
2021/03/24 06:01:17;;;;;;;16.67;14.25;;;10.90;63.80;;;;;;5009352;28;20030;-87
2021/03/24 06:03:52;;;;;;;17.27;12.38;;;10.80;63.70;;;;;;5006762;28;20034;-87
2021/03/24 06:06:40;;;;;;;13.85;12.02;;;10.90;63.80;;;;;;5006900;28;20068;-86
2021/03/24 06:09:33;;;;;;;15.70;13.27;;;10.80;63.70;;;;;;5014216;28;20044;-84
2021/03/24 06:11:59;;;;;;;14.82;11.63;;;10.90;63.90;;;;;;5016470;28;20089;-87
2021/03/24 06:14:50;;;;;;;16.48;13.45;;;10.90;63.80;;;;;;5017462;28;20061;-88
2021/03/24 06:17:39;;;;;;;15.52;13.77;;;10.90;63.90;;;;;;5009915;28;20117;-91
2021/03/24 06:20:32;;;;;;;19.70;13.65;;;10.90;63.90;;;;;;4989732;28;20436;-91
2021/03/24 06:23:36;;;;;;;15.35;12.70;;;10.90;64.00;;;;;;4997766;28;20120;-84
2021/03/24 06:26:27;;;;;;;18.40;12.20;;;10.90;63.90;;;;;;5007056;28;20076;-86
2021/03/24 06:29:07;;;;;;;16.73;13.07;;;10.90;64.20;;;;;;5007672;28;20047;-84
2021/03/24 06:31:49;;;;;;;20.65;12.50;;;11.00;64.60;;;;;;5007484;28;20064;-84
2021/03/24 06:34:43;;;;;;;13.85;11.90;;;11.00;64.70;;;;;;4990976;28;20034;-86
2021/03/24 06:37:24;;;;;;;14.95;11.18;;;11.10;65.00;;;;;;5007096;28;20875;-84
2021/03/24 06:39:56;;;;;;;19.77;13.18;;;11.00;64.80;;;;;;5007261;28;20068;-84
2021/03/24 06:42:37;;;;;;;19.60;13.30;;;11.10;65.00;;;;;;5008169;28;20017;-84
2021/03/24 06:45:33;;;;;;;16.90;11.75;;;11.10;65.20;;;;;;5006914;28;20455;-87
2021/03/24 06:48:05;;;;;;;16.58;11.48;;;11.10;65.20;;;;;;5007845;28;20046;-85
2021/03/24 06:50:37;;;;;;;13.15;11.70;;;11.20;65.30;;;;;;5007568;28;20045;-84
2021/03/24 06:53:22;;;;;;;16.63;12.75;;;11.20;65.40;;;;;;5008459;28;20044;-88
2021/03/24 06:56:17;;;;;;;15.48;11.38;;;11.20;65.60;;;;;;4992090;28;20122;-83
2021/03/24 06:59:18;;;;;;;14.68;12.18;;;11.20;65.70;;;;;;4974521;28;20497;-88
2021/03/24 07:02:03;;;;;;;18.40;11.80;;;11.20;65.70;;;;;;4962578;28;20516;-94
2021/03/24 07:04:43;;;;;;;14.05;10.98;;;11.20;65.70;;;;;;4973462;28;20038;-92
2021/03/24 07:07:17;;;;;;;13.27;10.15;;;11.30;66.00;;;;;;4960267;28;20121;-90
2021/03/24 07:27:45;;;;;;;14.93;10.30;;;11.90;67.80;;;;;;5008968;28;20543;-88
2021/03/24 07:30:41;;;;;;;13.38;10.07;;;12.00;67.70;;;;;;4968128;28;20038;-87
2021/03/24 07:33:19;;;;;;;16.15;10.50;;;12.10;67.80;;;;;;4968123;28;20095;-88
2021/03/24 08:49:18;;;;;;;12.73;8.32;;;13.00;67.40;;;;;;5007951;28;20176;-83
2021/03/24 08:51:59;;;;;;;11.07;8.25;;;13.00;67.30;;;;;;4991583;28;20121;-82
2021/03/24 08:54:33;;;;;;;13.45;9.85;;;13.00;67.30;;;;;;4989393;28;20026;-83
2021/03/24 08:57:37;;;;;;;13.45;9.38;;;13.00;67.30;;;;;;4974162;28;20035;-83
2021/03/24 09:00:21;;;;;;;12.73;8.23;;;13.00;67.30;;;;;;4971620;28;20030;-87
2021/03/24 09:03:15;;;;;;;11.73;8.77;;;13.00;67.30;;;;;;4995646;28;20034;-84
2021/03/24 09:06:10;;;;;;;10.10;7.43;;;13.00;67.30;;;;;;4992518;28;20465;-86
2021/03/24 09:08:45;;;;;;;9.57;7.65;;;13.00;67.30;;;;;;4992452;28;20124;-85
2021/03/24 09:11:53;;;;;;;11.52;7.80;;;13.00;67.30;;;;;;4977788;28;20394;-89
2021/03/24 09:14:27;;;;;;;10.00;6.90;;;13.00;67.30;;;;;;4972955;28;20033;-89
2021/03/24 09:17:05;;;;;;;14.50;8.10;;;13.00;67.10;;;;;;4992154;28;21217;-86
2021/03/24 09:19:56;;;;;;;13.05;8.23;;;13.10;67.30;;;;;;4983186;28;20486;-88
2021/03/24 09:22:49;;;;;;;9.48;7.80;;;13.10;67.20;;;;;;4996370;28;20492;-89
2021/03/24 09:25:33;;;;;;;9.27;7.18;;;13.10;67.20;;;;;;5006478;28;20044;-87
2021/03/24 09:28:11;;;;;;;13.60;7.20;;;13.20;67.40;;;;;;5011080;28;20045;-86
2021/03/24 09:30:44;;;;;;;9.80;7.35;;;13.20;67.30;;;;;;5032029;28;20033;-90
2021/03/24 09:33:29;;;;;;;10.02;6.70;;;13.20;67.20;;;;;;5013653;28;20087;-91
2021/03/24 09:36:24;;;;;;;11.88;7.00;;;13.30;67.30;;;;;;5029791;28;20033;-87
2021/03/24 09:38:53;;;;;;;8.82;6.15;;;13.40;67.50;;;;;;5013970;28;20484;-89
2021/03/24 09:41:29;;;;;;;7.78;5.93;;;13.50;67.50;;;;;;5014054;28;20052;-86
2021/03/24 09:44:02;;;;;;;11.10;6.25;;;13.70;67.70;;;;;;4995355;28;20036;-85
2021/03/24 09:46:42;;;;;;;6.72;5.95;;;13.80;67.70;;;;;;4996894;28;20250;-84
2021/03/24 09:49:20;;;;;;;11.20;6.43;;;13.90;67.70;;;;;;5016974;28;20041;-86
2021/03/24 09:52:16;;;;;;;7.30;5.85;;;14.10;67.80;;;;;;5011883;28;20072;-93
2021/03/24 09:55:17;;;;;;;6.63;4.88;;;14.30;67.90;;;;;;4988760;28;20340;-90
2021/03/24 09:58:05;;;;;;;8.75;5.80;;;14.40;67.80;;;;;;5020576;28;20013;-90
2021/03/24 10:00:38;;;;;;;8.13;5.28;;;14.40;67.60;;;;;;4995737;28;20029;-88
2021/03/24 10:03:34;;;;;;;8.23;5.15;;;14.50;67.60;;;;;;5012448;28;20113;-90
2021/03/24 10:06:02;;;;;;;7.57;5.13;;;14.60;67.70;;;;;;5012398;28;20038;-87
2021/03/24 10:08:38;;;;;;;5.57;4.53;;;14.60;67.50;;;;;;5015873;28;20485;-94
2021/03/24 10:11:09;;;;;;;6.70;4.88;;;14.70;67.60;;;;;;4997135;28;20097;-91
2021/03/24 10:13:54;;;;;;;10.25;5.03;;;14.80;67.60;;;;;;4997118;28;20033;-88
2021/03/24 10:16:29;;;;;;;8.15;5.15;;;14.90;67.60;;;;;;5029485;28;20120;-86
2021/03/24 10:19:18;;;;;;;6.85;4.75;;;15.00;67.70;;;;;;5029995;28;20033;-94
2021/03/24 10:21:55;;;;;;;6.03;4.68;;;15.10;67.70;;;;;;5013157;28;20429;-94
2021/03/24 10:24:33;;;;;;;7.30;5.22;;;15.10;67.60;;;;;;5012103;28;20053;-90
2021/03/24 10:27:05;;;;;;;6.57;4.32;;;15.20;67.60;;;;;;4996200;28;20037;-89
2021/03/24 10:29:47;;;;;;;9.45;4.78;;;15.30;67.60;;;;;;5015243;28;20033;-91
2021/03/24 10:32:23;;;;;;;8.13;4.07;;;15.40;67.50;;;;;;5001339;28;20029;-93
2021/03/24 10:34:57;;;;;;;8.57;4.93;;;15.60;67.70;;;;;;4997371;28;20041;-91
2021/03/24 10:37:56;;;;;;;6.25;4.25;;;15.70;67.70;;;;;;5045349;23;20049;-88
2021/03/24 10:40:28;;;;;;;8.38;4.25;;;15.80;67.60;;;;;;5020831;28;20064;-90
2021/03/24 10:43:05;;;;;;;4.63;3.80;;;15.90;67.60;;;;;;5008594;28;20043;-91
2021/03/24 10:45:59;;;;;;;6.70;4.10;;;15.90;67.40;;;;;;5011481;28;20041;-91
2021/03/24 10:48:55;;;;;;;7.28;4.43;;;16.00;67.40;;;;;;5034575;28;20037;-94
2021/03/24 10:51:24;;;;;;;5.05;4.07;;;16.10;67.50;;;;;;4991223;23;20144;-74
2021/03/24 10:54:01;;;;;;;6.30;3.70;;;16.20;67.50;;;;;;4987867;28;20038;-73
2021/03/24 10:56:34;;;;;;;11.40;4.18;;;16.20;67.20;;;;;;4988339;28;20026;-71
2021/03/24 10:59:36;;;;;;;8.70;4.03;;;16.10;66.80;;;;;;5006034;28;20038;-71
2021/03/24 11:02:08;;;;;;;7.65;3.65;;;16.10;65.80;;;;;;5006105;28;20500;-71
2021/03/24 11:04:55;;;;;;;9.75;3.38;;;16.10;66.00;;;;;;5005505;28;20509;-71
2021/03/24 11:07:56;;;;;;;11.25;4.63;;;16.10;65.70;;;;;;5006181;28;20133;-72
2021/03/24 11:10:40;;;;;;;8.05;3.55;;;16.10;65.60;;;;;;5005959;28;20064;-71
2021/03/24 11:13:38;;;;;;;7.75;3.15;;;16.20;65.70;;;;;;5005922;28;20349;-71
2021/03/24 11:16:16;;;;;;;7.22;4.20;;;16.20;65.50;;;;;;5005361;28;20400;-70
2021/03/24 11:18:50;;;;;;;6.22;3.42;;;16.20;65.30;;;;;;4997213;28;20030;-71
2021/03/24 11:21:29;;;;;;;6.55;3.58;;;16.30;65.40;;;;;;4971931;28;20029;-73
2021/03/24 11:24:20;;;;;;;6.88;3.50;;;16.30;65.20;;;;;;5004871;28;20134;-71
2021/03/24 11:26:55;;;;;;;7.90;3.10;;;16.30;65.00;;;;;;5004949;28;20457;-72
2021/03/24 11:29:24;;;;;;;9.00;3.50;;;16.30;64.90;;;;;;4987772;28;20040;-73
2021/03/24 11:32:11;;;;;;;4.22;2.72;;;16.30;64.90;;;;;;5005412;28;20045;-73
2021/03/24 11:34:46;;;;;;;5.32;3.03;;;16.30;64.80;;;;;;4987931;28;20085;-70
2021/03/24 11:37:30;;;;;;;8.82;3.63;;;16.30;64.70;;;;;;5005679;28;20121;-71
2021/03/24 11:40:06;;;;;;;6.93;3.10;;;16.30;64.70;;;;;;4988534;28;20399;-71
2021/03/24 11:42:35;;;;;;;7.03;3.38;;;16.30;64.60;;;;;;4987845;28;20026;-72
2021/03/24 11:45:10;;;;;;;6.55;3.05;;;16.30;64.50;;;;;;5005697;28;20436;-71
2021/03/24 11:47:48;;;;;;;7.25;3.30;;;16.30;64.40;;;;;;5012752;28;20193;-71
2021/03/24 11:50:28;;;;;;;6.03;2.95;;;16.30;64.40;;;;;;5011269;28;20034;-71
2021/03/24 11:53:21;;;;;;;4.65;2.72;;;16.30;64.30;;;;;;5054140;28;20135;-69
2021/03/24 11:56:04;;;;;;;5.88;3.17;;;16.30;64.10;;;;;;5075107;28;20033;-72
2021/03/24 11:58:36;;;;;;;4.50;2.57;;;16.40;64.20;;;;;;5070986;28;20085;-72
2021/03/24 12:01:28;;;;;;;5.95;2.70;;;16.50;64.20;;;;;;5069066;28;20105;-71
2021/03/24 12:04:12;;;;;;;3.83;2.65;;;16.50;64.00;;;;;;5068137;28;20064;-73
2021/03/24 12:06:44;;;;;;;;;;;16.60;64.00;;;;;;5051198;28;20512;-71
2021/03/24 12:09:31;;;;;;;4.50;2.50;;;16.70;64.20;;;;;;5068714;28;20382;-72
2021/03/24 12:12:10;;;;;;;5.82;2.95;;;16.70;63.90;;;;;;5068673;28;20025;-71
2021/03/24 12:14:38;;;;;;;5.30;2.78;;;16.70;63.70;;;;;;5068728;28;20024;-71
2021/03/24 12:17:31;;;;;;;6.68;2.92;;;16.80;63.80;;;;;;5067734;28;20078;-71
2021/03/24 12:20:06;;;;;;;4.95;3.00;;;16.80;63.60;;;;;;5048598;28;20040;-72
2021/03/24 12:22:33;;;;;;;6.80;2.70;;;16.90;63.70;;;;;;5036376;28;20028;-73
2021/03/24 12:25:23;;;;;;;8.10;2.85;;;16.90;63.70;;;;;;5051415;28;20110;-71
2021/03/24 12:27:53;;;;;;;4.47;2.65;;;16.90;63.50;;;;;;5069008;28;20044;-71
2021/03/24 12:30:45;;;;;;;4.97;2.95;;;16.90;63.50;;;;;;5068112;28;20120;-70
2021/03/24 12:33:15;;;;;;;6.15;3.13;;;16.90;63.30;;;;;;5068602;28;20033;-70
2021/03/24 12:35:47;;;;;;;5.22;2.50;;;17.00;63.50;;;;;;5033759;28;20024;-73
2021/03/24 12:38:21;;;;;;;5.78;2.90;;;17.00;63.40;;;;;;5049282;28;20025;-73
2021/03/24 12:41:02;;;;;;;4.15;2.80;;;17.10;63.50;;;;;;5068213;28;20541;-70
2021/03/24 12:43:32;;;;;;;6.38;2.75;;;17.10;63.70;;;;;;5068704;28;20036;-72
2021/03/24 12:46:15;;;;;;;5.50;2.78;;;17.10;63.30;;;;;;5068393;28;20028;-73
2021/03/24 12:48:53;;;;;;;7.00;2.38;;;17.10;63.10;;;;;;5049131;28;20045;-71
2021/03/24 12:51:44;;;;;;;5.13;2.60;;;17.10;63.10;;;;;;5049480;28;20040;-71
2021/03/24 12:54:12;;;;;;;7.68;2.50;;;17.10;63.10;;;;;;5067076;28;20032;-71
2021/03/24 12:57:02;;;;;;;8.52;2.80;;;17.10;63.00;;;;;;5049175;28;20110;-70
2021/03/24 12:59:48;;;;;;;6.55;2.50;;;17.10;62.90;;;;;;5067457;28;20029;-70
2021/03/24 13:02:53;;;;;;;4.05;2.67;;;17.10;62.90;;;;;;5049294;28;20432;-71
2021/03/24 13:05:41;;;;;;;5.47;2.30;;;17.10;62.70;;;;;;5067889;28;20352;-70
2021/03/24 13:08:31;;;;;;;7.13;2.75;;;17.10;62.80;;;;;;5049381;28;20784;-71
2021/03/24 13:11:15;;;;;;;9.07;2.55;;;17.10;62.80;;;;;;5049344;28;20029;-71
2021/03/24 13:13:57;;;;;;;3.65;2.10;;;17.10;62.80;;;;;;5067372;28;20028;-71
2021/03/24 13:17:02;;;;;;;4.97;2.60;;;17.10;63.20;;;;;;5067151;28;20029;-70
2021/03/24 13:19:47;;;;;;;3.85;1.85;;;17.10;62.70;;;;;;5067011;28;20479;-70
2021/03/24 13:22:48;;;;;;;3.85;1.88;;;17.20;62.80;;;;;;5066705;28;20390;-70
2021/03/24 13:25:14;;;;;;;8.43;2.70;;;17.20;62.80;;;;;;5052989;28;20046;-72
2021/03/24 13:28:15;;;;;;;5.70;2.88;;;17.20;62.80;;;;;;5067199;28;20512;-72
2021/03/24 13:30:44;;;;;;;5.72;2.30;;;17.30;62.90;;;;;;5066378;28;20040;-70
2021/03/24 13:33:20;;;;;;;5.10;2.17;;;17.30;62.80;;;;;;5066762;28;20279;-72
2021/03/24 13:36:07;;;;;;;3.15;2.00;;;17.30;62.70;;;;;;5067291;28;20111;-72
2021/03/24 13:38:53;;;;;;;5.57;2.25;;;17.40;62.80;;;;;;5066797;28;20028;-70
2021/03/24 13:41:21;;;;;;;4.68;1.90;;;17.50;62.90;;;;;;5067026;28;20032;-70
2021/03/24 13:44:17;;;;;;;5.10;2.30;;;17.50;63.40;;;;;;5066521;28;20647;-71
2021/03/24 13:46:48;;;;;;;3.58;2.08;;;17.50;62.70;;;;;;5066423;28;20152;-71
2021/03/24 13:49:32;;;;;;;6.72;2.38;;;17.60;62.90;;;;;;5066600;28;20036;-70
2021/03/24 13:52:26;;;;;;;6.22;2.25;;;17.70;62.90;;;;;;5066819;28;20055;-72
2021/03/24 13:55:10;;;;;;;5.57;2.33;;;17.70;62.90;;;;;;5047746;28;20029;-72
2021/03/24 13:57:53;;;;;;;4.03;2.20;;;17.80;63.00;;;;;;5065954;28;20078;-75
2021/03/24 14:00:20;;;;;;;;;;;17.80;62.90;;;;;;5049829;28;20563;-71
2021/03/24 14:03:29;;;;;;;6.38;2.00;;;17.90;63.10;;;;;;5066655;28;19915;-75
2021/03/24 14:05:58;;;;;;;3.97;2.30;;;17.90;62.90;;;;;;4993529;28;20060;-74
2021/03/24 14:08:56;;;;;;;5.90;1.60;;;18.00;63.00;;;;;;5046995;28;20038;-72
2021/03/24 14:11:49;;;;;;;5.20;2.42;;;18.10;62.90;;;;;;5031996;28;20028;-75
2021/03/24 14:14:24;;;;;;;5.72;2.30;;;18.10;62.80;;;;;;5065952;28;20032;-70
2021/03/24 14:17:04;;;;;;;4.82;2.00;;;18.20;62.90;;;;;;5066281;28;20040;-70
2021/03/24 14:19:35;;;;;;;7.93;2.15;;;18.30;62.90;;;;;;5048510;28;20033;-70
2021/03/24 14:22:25;;;;;;;3.83;1.75;;;18.40;62.90;;;;;;5048928;28;20532;-73
2021/03/24 14:24:57;;;;;;;11.80;2.20;;;18.50;62.80;;;;;;5048799;28;20028;-74
2021/03/24 14:27:54;;;;;;;7.32;2.63;;;18.50;62.70;;;;;;5048460;28;20036;-74
2021/03/24 14:30:32;;;;;;;4.90;2.00;;;18.60;62.60;;;;;;5065958;28;20038;-71
2021/03/24 14:33:08;;;;;;;4.60;2.42;;;18.70;62.60;;;;;;5048523;28;20676;-73
2021/03/24 14:35:54;;;;;;;3.55;1.63;;;18.70;62.50;;;;;;5065970;28;20089;-72
2021/03/24 14:38:50;;;;;;;3.45;1.80;;;18.80;62.50;;;;;;5047679;28;20863;-71
2021/03/24 14:41:26;;;;;;;4.18;2.03;;;18.90;62.50;;;;;;5065297;28;20036;-74
2021/03/24 14:44:08;;;;;;;3.83;1.80;;;19.00;62.60;;;;;;5047140;28;20124;-73
2021/03/24 14:47:18;;;;;;;6.35;2.30;;;19.10;62.60;;;;;;5047645;28;20040;-73
2021/03/24 14:50:02;;;;;;;4.22;1.92;;;19.10;62.70;;;;;;5056201;28;20072;-71
2021/03/24 14:52:35;;;;;;;6.10;1.92;;;19.20;62.60;;;;;;5065504;28;20094;-74
2021/03/24 14:55:22;;;;;;;6.30;1.80;;;19.20;63.10;;;;;;5066307;28;20499;-73
2021/03/24 14:57:48;;;;;;;5.03;1.75;;;19.20;62.50;;;;;;5048226;28;20031;-72
2021/03/24 15:00:30;;;;;;;8.75;2.10;;;19.20;62.40;;;;;;5066504;28;20136;-74